createdAt,value
2023-03-29T00:07:14.809Z,83.47
2023-03-29T00:12:17.763Z,65.15
2023-03-29T00:17:20.691Z,79.60
2023-03-29T00:22:23.339Z,77.57
2023-03-29T00:27:26.824Z,53.13
2023-03-29T00:32:29.431Z,57.22
2023-03-29T00:37:32.973Z,41.42
2023-03-29T00:42:35.782Z,35.45
2023-03-29T00:47:42.939Z,36.83
2023-03-29T00:52:52.034Z,41.40
2023-03-29T00:57:56.357Z,40.15
2023-03-29T01:03:01.474Z,41.55
2023-03-29T01:08:07.017Z,46.63
2023-03-29T01:13:13.606Z,48.13
2023-03-29T01:18:16.477Z,44.20
2023-03-29T01:23:53.336Z,44.37
2023-03-29T01:29:03.383Z,44.63
2023-03-29T01:34:42.258Z,47.53
2023-03-29T01:39:44.807Z,50.40
2023-03-29T01:44:58.367Z,34.95
2023-03-29T01:50:04.369Z,48.33
2023-03-29T01:55:14.167Z,45.85
2023-03-29T02:00:21.866Z,49.88
2023-03-29T02:05:29.271Z,45.58
2023-03-29T02:10:37.748Z,37.38
2023-03-29T02:15:40.375Z,41.08
2023-03-29T02:20:47.657Z,42.70
2023-03-29T02:25:53.824Z,35.38
2023-03-29T02:31:05.838Z,41.13
2023-03-29T02:36:18.397Z,42.38
2023-03-29T02:41:23.985Z,42.03
2023-03-29T02:46:27.128Z,48.03
2023-03-29T02:51:32.805Z,45.67
2023-03-29T02:56:48.030Z,51.00
2023-03-29T03:01:52.904Z,53.85
2023-03-29T03:06:57.002Z,49.28
2023-03-29T03:12:00.007Z,44.53
2023-03-29T03:17:04.720Z,45.25
2023-03-29T03:22:10.226Z,51.88
2023-03-29T03:27:13.958Z,45.10
2023-03-29T03:32:16.681Z,47.88
2023-03-29T03:37:39.445Z,40.15
2023-03-29T03:42:42.975Z,46.40
2023-03-29T03:47:46.948Z,41.65
2023-03-29T03:52:59.795Z,48.38
2023-03-29T03:58:10.568Z,46.60
2023-03-29T04:03:14.798Z,47.47
2023-03-29T04:08:17.428Z,43.88
2023-03-29T04:13:38.523Z,31.15
2023-03-29T04:19:10.904Z,43.13
2023-03-29T04:24:14.424Z,56.03
2023-03-29T04:29:23.005Z,54.45
2023-03-29T04:34:35.375Z,60.03
2023-03-29T04:39:41.500Z,55.78
2023-03-29T04:44:44.805Z,57.65
2023-03-29T04:49:53.413Z,52.10
2023-03-29T04:55:07.370Z,50.53
2023-03-29T05:00:27.872Z,49.92
2023-03-29T05:05:49.468Z,33.42
2023-03-29T05:10:52.258Z,22.17
2023-03-29T05:15:55.325Z,35.22
2023-03-29T05:20:58.914Z,26.43
2023-03-29T05:26:08.251Z,35.83
2023-03-29T05:31:12.445Z,35.65
2023-03-29T05:36:19.047Z,32.58
2023-03-29T05:41:25.032Z,31.67
2023-03-29T05:46:36.611Z,39.72
2023-03-29T05:51:42.324Z,85.28
2023-03-29T05:56:50.584Z,65.28
2023-03-29T06:01:54.400Z,52.97
2023-03-29T06:06:57.669Z,37.58
2023-03-29T06:12:01.932Z,32.93
2023-03-29T06:17:11.054Z,31.55
2023-03-29T06:22:14.977Z,32.63
2023-03-29T06:27:18.417Z,31.30
2023-03-29T06:32:21.430Z,32.20
2023-03-29T06:37:32.324Z,37.85
2023-03-29T06:42:47.923Z,37.88
2023-03-29T06:48:06.619Z,42.70
2023-03-29T06:58:12.630Z,38.47
2023-03-29T07:03:20.801Z,34.70
2023-03-29T07:08:31.631Z,33.63
2023-03-29T07:13:47.597Z,34.03
2023-03-29T07:18:53.166Z,34.83
2023-03-29T07:24:38.916Z,28.08
2023-03-29T07:29:42.552Z,26.20
2023-03-29T07:34:46.649Z,28.38
2023-03-29T07:40:09.525Z,28.48
2023-03-29T07:45:31.172Z,33.47
2023-03-29T07:50:46.415Z,32.60
2023-03-29T07:55:50.406Z,32.47
2023-03-29T08:01:18.810Z,39.28
2023-03-29T08:06:42.272Z,37.03
2023-03-29T08:11:45.056Z,44.27
2023-03-29T08:17:00.518Z,27.67
2023-03-29T08:22:07.257Z,30.20
2023-03-29T08:27:31.265Z,24.85
2023-03-29T08:32:34.479Z,22.40
2023-03-29T08:37:38.079Z,22.15
2023-03-29T08:43:03.368Z,24.25
2023-03-29T08:48:46.281Z,21.35
2023-03-29T08:54:00.869Z,19.80
2023-03-29T08:59:21.180Z,33.90
2023-03-29T09:04:32.025Z,18.77
2023-03-29T09:09:57.648Z,20.42
2023-03-29T09:15:24.040Z,15.07
2023-03-29T09:21:03.826Z,20.33
2023-03-29T09:26:20.606Z,18.70
2023-03-29T09:31:47.282Z,30.88
2023-03-29T09:36:57.581Z,20.17
2023-03-29T09:42:08.251Z,15.80
2023-03-29T09:47:45.018Z,14.45
2023-03-29T09:52:54.141Z,25.80
2023-03-29T09:58:06.522Z,31.63
2023-03-29T10:03:22.702Z,32.70
2023-03-29T10:08:55.365Z,19.63
2023-03-29T10:14:05.855Z,15.23
2023-03-29T10:19:31.130Z,17.05
2023-03-29T10:24:33.983Z,13.80
2023-03-29T10:34:48.266Z,20.40
2023-03-29T10:39:54.509Z,23.13
2023-03-29T10:44:59.606Z,20.83
2023-03-29T10:50:06.268Z,12.02
2023-03-29T10:55:13.248Z,18.63
2023-03-29T11:00:21.977Z,13.63
2023-03-29T11:05:48.472Z,14.40
2023-03-29T11:10:58.808Z,13.07
2023-03-29T11:16:14.256Z,10.13
2023-03-29T11:21:23.693Z,10.68
2023-03-29T11:26:29.624Z,8.88
2023-03-29T11:32:00.671Z,13.38
2023-03-29T11:37:29.141Z,12.38
2023-03-29T11:42:34.286Z,6.35
2023-03-29T11:47:38.451Z,9.80
2023-03-29T11:52:44.865Z,9.30
2023-03-29T11:58:04.236Z,10.50
2023-03-29T12:03:15.047Z,12.98
2023-03-29T12:08:33.992Z,11.43
2023-03-29T12:13:48.784Z,13.57
2023-03-29T12:18:55.204Z,13.88
2023-03-29T12:23:58.530Z,11.63
2023-03-29T12:29:08.598Z,18.70
2023-03-29T12:34:17.171Z,29.52
2023-03-29T12:39:37.221Z,27.48
2023-03-29T12:45:00.301Z,21.80
2023-03-29T12:50:23.006Z,7.93
2023-03-29T12:55:31.595Z,8.52
2023-03-29T13:00:37.335Z,12.50
2023-03-29T13:05:43.645Z,8.25
2023-03-29T13:10:54.097Z,4.70
2023-03-29T13:16:12.945Z,14.60
2023-03-29T13:21:34.032Z,7.05
2023-03-29T13:26:58.175Z,30.33
2023-03-29T13:32:07.687Z,13.27
2023-03-29T13:37:43.715Z,12.02
2023-03-29T13:43:05.865Z,7.85
2023-03-29T13:48:32.331Z,11.57
2023-03-29T13:54:18.422Z,33.38
2023-03-29T13:59:36.205Z,20.50
2023-03-29T14:04:47.071Z,58.75
2023-03-29T14:09:50.791Z,60.17
2023-03-29T14:15:04.168Z,50.15
2023-03-29T14:20:09.445Z,50.10
2023-03-29T14:25:21.495Z,134.48
2023-03-29T14:30:29.355Z,62.67
2023-03-29T14:35:37.157Z,20.70
2023-03-29T14:40:46.801Z,23.33
2023-03-29T14:45:51.093Z,20.13
2023-03-29T14:50:54.192Z,8.20
2023-03-29T14:55:58.414Z,8.63
2023-03-29T15:01:15.468Z,7.28
2023-03-29T15:06:18.881Z,13.50
2023-03-29T15:11:29.080Z,45.10
2023-03-29T15:16:33.884Z,105.07
2023-03-29T15:21:38.986Z,60.05
2023-03-29T15:26:42.334Z,38.20
2023-03-29T15:31:57.112Z,144.98
2023-03-29T15:37:02.054Z,48.78
2023-03-29T15:42:07.663Z,28.52
2023-03-29T15:47:15.400Z,27.25
2023-03-29T15:52:20.666Z,33.05
2023-03-29T15:57:29.116Z,34.25
2023-03-29T16:02:32.095Z,49.10
2023-03-29T16:07:35.297Z,62.22
2023-03-29T16:12:39.911Z,58.70
2023-03-29T16:17:44.782Z,31.60
2023-03-29T16:22:57.506Z,21.60
2023-03-29T16:28:01.898Z,26.33
2023-03-29T16:33:08.861Z,26.45
2023-03-29T16:38:11.829Z,29.67
2023-03-29T16:43:16.389Z,27.33
2023-03-29T16:48:19.784Z,31.52
2023-03-29T16:53:24.691Z,27.17
2023-03-29T16:58:34.107Z,22.65
2023-03-29T17:03:43.857Z,16.02
2023-03-29T17:08:57.716Z,15.75
2023-03-29T17:14:07.379Z,20.83
2023-03-29T17:19:10.538Z,117.60
2023-03-29T17:24:16.378Z,83.10
2023-03-29T17:29:25.116Z,42.10
2023-03-29T17:34:33.367Z,37.22
2023-03-29T17:39:42.260Z,40.22
2023-03-29T17:44:51.271Z,89.00
2023-03-29T17:49:55.117Z,114.82
2023-03-29T17:54:57.818Z,98.43
2023-03-29T18:00:06.375Z,114.97
2023-03-29T18:05:10.490Z,115.45
2023-03-29T18:10:13.836Z,75.20
2023-03-29T18:15:27.244Z,56.65
2023-03-29T18:20:33.328Z,63.83
2023-03-29T18:25:39.127Z,83.95
2023-03-29T18:30:44.902Z,88.50
2023-03-29T18:35:59.148Z,149.53
2023-03-29T18:41:05.363Z,109.97
2023-03-29T18:46:10.470Z,73.10
2023-03-29T18:51:13.956Z,84.60
2023-03-29T18:56:17.853Z,47.70
2023-03-29T19:01:22.296Z,54.28
2023-03-29T19:06:28.564Z,54.20
2023-03-29T19:11:36.990Z,42.83
2023-03-29T19:16:44.243Z,51.10
2023-03-29T19:21:49.860Z,68.57
2023-03-29T19:26:58.706Z,62.15
2023-03-29T19:32:02.161Z,44.70
2023-03-29T19:37:08.280Z,46.60
2023-03-29T19:42:11.647Z,34.13
2023-03-29T19:47:18.535Z,31.75
2023-03-29T19:52:24.261Z,31.85
2023-03-29T19:57:29.476Z,44.30
2023-03-29T20:02:36.728Z,37.92
2023-03-29T20:07:42.712Z,36.78
2023-03-29T20:12:48.186Z,36.10
2023-03-29T20:17:52.447Z,29.65
2023-03-29T20:23:07.118Z,45.15
2023-03-29T20:28:10.016Z,61.50
2023-03-29T20:33:12.898Z,58.93
2023-03-29T20:38:16.476Z,43.50
2023-03-29T20:43:21.709Z,46.92
2023-03-29T20:48:30.471Z,52.33
2023-03-29T20:53:34.707Z,82.35
2023-03-29T20:58:42.159Z,83.32
2023-03-29T21:03:45.326Z,55.15
2023-03-29T21:08:48.679Z,56.90
2023-03-29T21:13:53.217Z,49.28
2023-03-29T21:18:56.213Z,42.35
2023-03-29T21:23:58.918Z,39.27
2023-03-29T21:29:02.220Z,43.53
2023-03-29T21:34:06.346Z,47.20
2023-03-29T21:39:09.094Z,37.90
2023-03-29T21:44:11.849Z,38.53
2023-03-29T21:49:14.543Z,36.33
2023-03-29T21:54:17.192Z,33.67
2023-03-29T21:59:20.028Z,37.53
2023-03-29T22:04:35.358Z,43.27
2023-03-29T22:09:45.045Z,51.60
2023-03-29T22:14:47.992Z,41.08
2023-03-29T22:19:50.748Z,48.08
2023-03-29T22:24:55.227Z,30.70
2023-03-29T22:30:00.783Z,27.95
2023-03-29T22:35:05.836Z,32.75
2023-03-29T22:40:12.408Z,34.65
2023-03-29T22:45:20.951Z,36.53
2023-03-29T22:50:32.621Z,40.55
2023-03-29T22:55:38.732Z,58.33
2023-03-29T23:00:43.653Z,56.00
2023-03-29T23:05:53.852Z,43.42
2023-03-29T23:11:03.652Z,35.90
2023-03-29T23:16:10.075Z,28.73
2023-03-29T23:21:14.452Z,24.00
2023-03-29T23:26:20.635Z,27.23
2023-03-29T23:31:30.733Z,23.23
2023-03-29T23:36:33.542Z,22.48
2023-03-29T23:41:36.446Z,21.43
2023-03-29T23:46:39.659Z,20.03
2023-03-29T23:51:45.260Z,18.65
2023-03-29T23:56:47.887Z,20.58
